首页
METAR-TAF:

METAR-TAF

机场 :

Fort Dodge, 艾奥瓦州, 美国

纬度: 42-33N, 经度: 094-11W, 海拔: 354米

当前天气观测

该预报发布于9分钟前的05:56 UTC
风速3节,风向
温度 18°C
湿度 94%
气压 1011 hPa
能見度: 16.1公里
天空无云

METAR: KFOD 250556Z AUTO 17003KT 10SM CLR 18/17 A2984 RMK AO2 SLP124 P0001 60005 T01830172 10222 20183 58007

时间: 01:05 (06:05 UTC)

预报

该预报发布于45分钟前的05:20 UTC
预报有效从25日的 06点(UTC)到 26日的 06点(UTC)
风速4节,风向多变
能見度: 10公里
少量云层高于4000英尺
阴天层高于8000英尺
附近有阵雨
从 25日的 1000点(UTC)
风速4节,风向南转西南
能見度: 10公里
阴天层高于2000英尺
从 25日的 1400点(UTC)
风速4节,风向东北
能見度: 10公里
多云层高于4000英尺
从 25日的 2100点(UTC)
风速6节,风向南转西南
能見度: 9.7公里
多云层高于5000英尺, 积雨云.
小阵雨, 附近有雷暴

TAF: KFOD 250520Z 2506/2606 VRB04KT P6SM VCSH FEW040 OVC080 FM251000 21004KT P6SM OVC020 FM251400 05004KT P6SM BKN040 FM252100 21006KT 6SM -SHRA VCTS BKN050CB

超过4000个机场的气象观测和天气预报(METAR&TAF报告)。

可查询的气象台以黄色和红色小点在地图上表示。

将鼠标移到小点上方,可查看气象台名称。

然后点击查看天气观测和预报。

如需切换地图:点击带黑十字的绿色按钮放大地图;点击带横线的绿色按钮缩小地图;或者点击绿色箭头查看邻近地区的地图。


METAR-TAF: